createdAt,value
2022-12-11T00:00:49.183Z,86.13
2022-12-11T00:02:50.744Z,86.20
2022-12-11T00:04:52.213Z,85.88
2022-12-11T00:06:53.789Z,85.58
2022-12-11T00:08:55.787Z,85.76
2022-12-11T00:10:57.241Z,85.98
2022-12-11T00:12:58.760Z,86.21
2022-12-11T00:15:00.196Z,85.86
2022-12-11T00:17:01.695Z,85.81
2022-12-11T00:19:03.315Z,85.80
2022-12-11T00:21:06.895Z,85.94
2022-12-11T00:23:08.366Z,85.93
2022-12-11T00:25:10.334Z,85.68
2022-12-11T00:27:11.996Z,85.82
2022-12-11T00:29:14.686Z,85.84
2022-12-11T00:31:18.150Z,85.80
2022-12-11T00:33:19.640Z,85.75
2022-12-11T00:35:21.134Z,85.15
2022-12-11T00:37:22.632Z,85.25
2022-12-11T00:39:24.119Z,85.33
2022-12-11T00:41:25.586Z,85.85
2022-12-11T00:43:27.080Z,85.63
2022-12-11T00:45:28.611Z,85.92
2022-12-11T00:47:30.058Z,85.74
2022-12-11T00:49:31.598Z,85.66
2022-12-11T00:51:33.402Z,85.50
2022-12-11T00:53:34.952Z,85.59
2022-12-11T00:55:37.826Z,85.93
2022-12-11T00:57:39.395Z,85.40
2022-12-11T00:59:40.879Z,85.19
2022-12-11T01:01:42.552Z,85.37
2022-12-11T01:03:44.835Z,85.65
2022-12-11T01:05:54.199Z,85.39
2022-12-11T01:07:55.723Z,85.60
2022-12-11T01:10:15.931Z,85.67
2022-12-11T01:12:17.460Z,85.13
2022-12-11T01:14:19.209Z,85.58
2022-12-11T01:16:20.776Z,85.50
2022-12-11T01:18:22.504Z,85.20
2022-12-11T01:20:26.200Z,85.19
2022-12-11T01:22:27.649Z,85.67
2022-12-11T01:24:29.101Z,85.49
2022-12-11T01:26:30.800Z,85.40
2022-12-11T01:28:32.274Z,85.34
2022-12-11T01:30:34.563Z,85.23
2022-12-11T01:32:36.815Z,85.73
2022-12-11T01:34:38.632Z,85.67
2022-12-11T01:36:40.084Z,85.43
2022-12-11T01:38:41.915Z,85.62
2022-12-11T01:40:51.219Z,85.47
2022-12-11T01:42:52.699Z,85.08
2022-12-11T01:45:15.766Z,85.08
2022-12-11T01:47:17.435Z,85.12
2022-12-11T01:49:21.887Z,85.23
2022-12-11T01:51:24.366Z,85.00
2022-12-11T01:53:31.183Z,85.21
2022-12-11T01:55:33.917Z,85.13
2022-12-11T01:57:39.781Z,85.31
2022-12-11T01:59:44.626Z,85.15
2022-12-11T02:01:46.019Z,85.62
2022-12-11T02:03:48.039Z,85.09
2022-12-11T02:05:49.947Z,85.46
2022-12-11T02:07:58.684Z,85.08
2022-12-11T02:10:00.040Z,85.66
2022-12-11T02:12:10.786Z,84.97
2022-12-11T02:14:17.928Z,84.99
2022-12-11T02:16:35.852Z,85.32
2022-12-11T02:18:53.800Z,85.29
2022-12-11T02:21:18.851Z,85.27
2022-12-11T02:23:39.433Z,85.46
2022-12-11T02:26:04.014Z,85.39
2022-12-11T02:28:08.127Z,85.69
2022-12-11T02:30:13.858Z,85.41
2022-12-11T02:32:23.306Z,85.59
2022-12-11T02:34:30.648Z,85.46
2022-12-11T02:36:38.086Z,85.12
2022-12-11T02:38:43.010Z,85.14
2022-12-11T02:40:46.943Z,85.23
2022-12-11T02:42:49.849Z,85.45
2022-12-11T02:44:54.411Z,85.39
2022-12-11T02:46:58.382Z,85.36
2022-12-11T02:49:01.649Z,85.10
2022-12-11T02:51:06.833Z,85.16
2022-12-11T02:53:12.715Z,85.03
2022-12-11T02:55:16.370Z,85.39
2022-12-11T02:57:42.136Z,85.02
2022-12-11T02:59:45.396Z,85.17
2022-12-11T03:01:47.329Z,85.46
2022-12-11T03:03:49.184Z,85.17
2022-12-11T03:05:50.922Z,85.34
2022-12-11T03:07:52.508Z,85.32
2022-12-11T03:09:54.250Z,85.45
2022-12-11T03:11:55.809Z,85.32
2022-12-11T03:13:57.537Z,85.66
2022-12-11T03:16:21.824Z,85.22
2022-12-11T03:18:44.248Z,85.13
2022-12-11T03:20:52.003Z,85.55
2022-12-11T03:23:22.054Z,85.01
2022-12-11T03:25:31.217Z,85.06
2022-12-11T03:27:46.162Z,85.25
2022-12-11T03:29:57.196Z,85.24
2022-12-11T03:32:09.379Z,85.03
2022-12-11T03:34:18.069Z,85.26
2022-12-11T03:36:25.438Z,85.43
2022-12-11T03:38:53.215Z,85.42
2022-12-11T03:40:58.748Z,85.26
2022-12-11T03:43:00.673Z,85.28
2022-12-11T03:45:04.930Z,85.53
2022-12-11T03:47:08.438Z,85.10
2022-12-11T03:49:27.930Z,84.78
2022-12-11T03:51:32.526Z,85.30
2022-12-11T03:53:38.565Z,84.69
2022-12-11T03:55:41.542Z,84.85
2022-12-11T03:57:43.598Z,85.31
2022-12-11T03:59:45.325Z,85.09
2022-12-11T04:01:46.836Z,85.01
2022-12-11T04:03:48.341Z,85.33
2022-12-11T04:05:52.888Z,85.14
2022-12-11T04:07:54.361Z,85.15
2022-12-11T04:09:55.809Z,85.30
2022-12-11T04:11:57.257Z,85.05
2022-12-11T04:14:17.285Z,84.83
2022-12-11T04:16:18.763Z,84.73
2022-12-11T04:18:38.477Z,85.11
2022-12-11T04:20:58.173Z,85.14
2022-12-11T04:23:18.454Z,85.23
2022-12-11T04:25:19.903Z,85.26
2022-12-11T04:27:47.443Z,85.03
2022-12-11T04:29:48.868Z,85.21
2022-12-11T04:31:50.743Z,85.11
2022-12-11T04:33:52.268Z,85.46
2022-12-11T04:35:53.853Z,84.90
2022-12-11T04:37:55.331Z,85.17
2022-12-11T04:39:56.768Z,85.26
2022-12-11T04:41:58.214Z,85.32
2022-12-11T04:43:59.667Z,85.63
2022-12-11T04:46:14.877Z,85.24
2022-12-11T04:48:16.351Z,85.14
2022-12-11T04:50:17.983Z,85.27
2022-12-11T04:52:19.482Z,85.57
2022-12-11T04:54:20.916Z,85.36
2022-12-11T04:56:22.413Z,85.67
2022-12-11T04:58:25.182Z,85.51
2022-12-11T05:00:27.185Z,85.50
2022-12-11T05:02:28.682Z,85.46
2022-12-11T05:04:34.807Z,85.31
2022-12-11T05:06:36.309Z,85.35
2022-12-11T05:08:40.495Z,85.37
2022-12-11T05:10:47.097Z,85.45
2022-12-11T05:12:51.394Z,85.47
2022-12-11T05:14:53.601Z,85.62
2022-12-11T05:16:55.035Z,85.44
2022-12-11T05:18:56.475Z,85.64
2022-12-11T05:21:00.342Z,85.60
2022-12-11T05:23:02.028Z,85.70
2022-12-11T05:25:04.142Z,85.12
2022-12-11T05:27:05.586Z,85.48
2022-12-11T05:29:07.068Z,85.55
2022-12-11T05:31:13.492Z,85.49
2022-12-11T05:33:14.963Z,85.40
2022-12-11T05:35:16.461Z,85.41
2022-12-11T05:37:17.903Z,85.36
2022-12-11T05:39:19.756Z,85.55
2022-12-11T05:41:23.675Z,85.33
2022-12-11T05:43:25.403Z,85.28
2022-12-11T05:45:26.869Z,85.26
2022-12-11T05:47:28.311Z,85.06
2022-12-11T05:49:31.218Z,85.26
2022-12-11T05:51:34.358Z,85.00
2022-12-11T05:53:37.274Z,85.05
2022-12-11T05:55:38.751Z,85.00
2022-12-11T05:57:40.178Z,84.98
2022-12-11T05:59:41.673Z,85.15
2022-12-11T06:01:43.561Z,85.08
2022-12-11T06:03:45.632Z,85.01
2022-12-11T06:05:47.108Z,84.81
2022-12-11T06:07:48.568Z,84.91
2022-12-11T06:09:50.012Z,85.21
2022-12-11T06:11:51.495Z,84.77
2022-12-11T06:13:53.126Z,85.23
2022-12-11T06:15:54.814Z,85.09
2022-12-11T06:17:56.279Z,84.73
2022-12-11T06:19:57.713Z,85.24
2022-12-11T06:21:59.239Z,85.06
2022-12-11T06:24:03.177Z,84.97
2022-12-11T06:26:04.901Z,84.77
2022-12-11T06:28:06.462Z,84.91
2022-12-11T06:30:08.675Z,84.86
2022-12-11T06:32:10.406Z,85.02
2022-12-11T06:34:13.699Z,85.13
2022-12-11T06:36:21.474Z,84.92
2022-12-11T06:38:23.543Z,85.35
2022-12-11T06:40:25.059Z,85.03
2022-12-11T06:42:26.483Z,85.38
2022-12-11T06:44:28.145Z,85.04
2022-12-11T06:46:29.627Z,85.19
2022-12-11T06:48:31.345Z,85.14
2022-12-11T06:50:33.125Z,85.54
2022-12-11T06:52:34.680Z,85.26
2022-12-11T06:54:36.386Z,85.17
2022-12-11T06:56:37.835Z,85.24
2022-12-11T06:58:40.201Z,85.62
2022-12-11T07:00:41.767Z,85.40
2022-12-11T07:02:43.226Z,85.34
2022-12-11T07:04:44.746Z,84.95
2022-12-11T07:06:47.453Z,85.01
2022-12-11T07:08:49.165Z,85.22
2022-12-11T07:10:50.655Z,85.50
2022-12-11T07:12:55.047Z,85.13
2022-12-11T07:14:56.518Z,85.42
2022-12-11T07:16:58.194Z,85.17
2022-12-11T07:19:00.667Z,85.33
2022-12-11T07:21:02.233Z,85.47
2022-12-11T07:23:03.710Z,85.41
2022-12-11T07:25:05.553Z,85.30
2022-12-11T07:27:06.993Z,85.33
2022-12-11T07:29:08.506Z,85.40
2022-12-11T07:31:15.898Z,85.41
2022-12-11T07:33:17.414Z,85.57
2022-12-11T07:35:18.939Z,85.48
2022-12-11T07:37:20.379Z,85.49
2022-12-11T07:39:21.811Z,85.38
2022-12-11T07:41:23.465Z,85.25
2022-12-11T07:43:24.895Z,85.32
2022-12-11T07:45:26.588Z,85.10
2022-12-11T07:47:28.056Z,85.34
2022-12-11T07:49:29.587Z,85.23
2022-12-11T07:51:33.025Z,85.29
2022-12-11T07:53:34.476Z,85.64
2022-12-11T07:55:35.966Z,85.49
2022-12-11T07:57:37.431Z,85.36
2022-12-11T07:59:38.910Z,85.23
2022-12-11T08:01:40.887Z,85.33
2022-12-11T08:03:42.578Z,85.56
2022-12-11T08:05:49.981Z,85.34
2022-12-11T08:07:51.450Z,85.54
2022-12-11T08:09:52.945Z,85.13
2022-12-11T08:11:54.402Z,85.26
2022-12-11T08:13:56.366Z,84.97
2022-12-11T08:15:58.313Z,85.34
2022-12-11T08:17:59.960Z,85.06
2022-12-11T08:20:01.405Z,85.16
2022-12-11T08:22:03.628Z,85.12
2022-12-11T08:24:05.182Z,85.29
2022-12-11T08:26:10.198Z,85.38
2022-12-11T08:28:11.634Z,85.16
2022-12-11T08:30:13.467Z,85.24
2022-12-11T08:32:16.756Z,85.34
2022-12-11T08:34:18.305Z,85.05
2022-12-11T08:36:21.237Z,85.10
2022-12-11T08:38:25.549Z,85.31
2022-12-11T08:40:27.266Z,85.13
2022-12-11T08:42:28.699Z,85.42
2022-12-11T08:44:30.229Z,85.28
2022-12-11T08:46:32.676Z,85.34
2022-12-11T08:48:35.464Z,85.18
2022-12-11T08:50:37.265Z,84.81
2022-12-11T08:52:38.729Z,84.54
2022-12-11T08:54:40.355Z,85.11
2022-12-11T08:56:41.813Z,84.73
2022-12-11T08:58:44.668Z,84.95
2022-12-11T09:00:46.277Z,84.78
2022-12-11T09:02:48.354Z,85.07
2022-12-11T09:04:50.543Z,84.78
2022-12-11T09:06:51.999Z,85.04
2022-12-11T09:08:54.633Z,85.14
2022-12-11T09:10:56.074Z,85.29
2022-12-11T09:12:57.524Z,84.74
2022-12-11T09:14:58.970Z,85.02
2022-12-11T09:17:00.446Z,84.75
2022-12-11T09:19:01.883Z,84.78
2022-12-11T09:21:17.895Z,84.53
2022-12-11T09:23:19.331Z,84.73
2022-12-11T09:25:20.892Z,84.81
2022-12-11T09:27:22.369Z,84.94
2022-12-11T09:29:23.910Z,84.58
2022-12-11T09:31:28.260Z,84.89
2022-12-11T09:33:29.690Z,84.98
2022-12-11T09:35:31.134Z,84.56
2022-12-11T09:37:34.017Z,84.85
2022-12-11T09:39:35.496Z,84.50
2022-12-11T09:41:50.034Z,84.63
2022-12-11T09:44:18.370Z,85.01
2022-12-11T09:46:23.613Z,84.39
2022-12-11T09:48:26.594Z,84.59
2022-12-11T09:50:32.876Z,84.43
2022-12-11T09:53:02.530Z,84.78
2022-12-11T09:55:15.488Z,84.42
2022-12-11T09:57:28.997Z,84.45
2022-12-11T10:00:02.719Z,84.69
2022-12-11T10:02:22.525Z,84.20
2022-12-11T10:04:26.721Z,84.65
2022-12-11T10:06:32.541Z,84.14
2022-12-11T10:08:44.863Z,84.11
2022-12-11T10:11:30.589Z,84.06
2022-12-11T10:13:48.315Z,84.62
2022-12-11T10:16:19.101Z,84.61
2022-12-11T10:18:23.452Z,84.31
2022-12-11T10:20:31.739Z,84.67
2022-12-11T10:22:34.711Z,84.64
2022-12-11T10:25:11.568Z,84.58
2022-12-11T10:27:26.716Z,84.95
2022-12-11T10:29:28.397Z,85.31
2022-12-11T10:31:45.081Z,85.31
2022-12-11T10:34:15.232Z,85.27
2022-12-11T10:36:25.216Z,85.06
2022-12-11T10:38:32.319Z,85.22
2022-12-11T10:40:36.268Z,85.10
2022-12-11T10:42:41.273Z,85.18
2022-12-11T10:44:58.241Z,85.05
2022-12-11T10:47:04.601Z,84.98
2022-12-11T10:49:06.034Z,84.96
2022-12-11T10:51:07.956Z,84.87
2022-12-11T10:53:21.123Z,84.71
2022-12-11T10:55:27.378Z,84.85
2022-12-11T10:57:32.537Z,84.43
2022-12-11T10:59:43.939Z,84.90
2022-12-11T11:01:46.711Z,84.41
2022-12-11T11:04:06.933Z,84.98
2022-12-11T11:06:20.151Z,84.76
2022-12-11T11:08:25.283Z,84.74
2022-12-11T11:10:27.255Z,84.45
2022-12-11T11:12:28.817Z,84.62
2022-12-11T11:14:30.381Z,84.43
2022-12-11T11:16:34.935Z,84.36
2022-12-11T11:18:36.541Z,84.32
2022-12-11T11:20:46.483Z,84.68
2022-12-11T11:22:52.343Z,84.34
2022-12-11T11:24:59.047Z,84.81
2022-12-11T11:27:16.486Z,84.19
2022-12-11T11:29:37.759Z,84.19
2022-12-11T11:31:39.330Z,83.91
2022-12-11T11:33:56.016Z,83.94
2022-12-11T11:36:02.455Z,84.00
2022-12-11T11:38:09.636Z,84.05
2022-12-11T11:40:33.308Z,83.83
2022-12-11T11:42:45.595Z,83.85
2022-12-11T11:44:59.808Z,84.00
2022-12-11T11:47:09.046Z,84.06
2022-12-11T11:49:24.262Z,84.51
2022-12-11T11:51:41.683Z,84.38
2022-12-11T11:53:49.492Z,84.42
2022-12-11T11:56:03.223Z,84.91
2022-12-11T11:58:17.362Z,85.08
2022-12-11T12:00:21.362Z,85.30
2022-12-11T12:02:22.897Z,85.01
2022-12-11T12:04:28.478Z,85.01
2022-12-11T12:07:07.247Z,84.20
2022-12-11T12:09:09.194Z,84.16
2022-12-11T12:11:13.300Z,84.54
2022-12-11T12:13:48.541Z,84.43
2022-12-11T12:16:43.779Z,83.52
2022-12-11T12:18:57.972Z,84.39
2022-12-11T12:21:00.120Z,84.95
2022-12-11T12:23:20.078Z,84.17
2022-12-11T12:25:30.328Z,83.86
2022-12-11T12:27:57.839Z,84.41
2022-12-11T12:30:03.832Z,84.90
2022-12-11T12:32:16.237Z,84.69
2022-12-11T12:34:39.419Z,84.72
2022-12-11T12:36:50.067Z,85.18
2022-12-11T12:39:28.258Z,84.79
2022-12-11T12:42:08.328Z,84.81
2022-12-11T12:44:17.723Z,84.84
2022-12-11T12:46:37.426Z,84.36
2022-12-11T12:48:39.179Z,84.64
2022-12-11T12:50:45.059Z,84.46
2022-12-11T12:52:48.742Z,84.96
2022-12-11T12:55:12.967Z,85.24
2022-12-11T12:57:14.695Z,84.73
2022-12-11T12:59:24.793Z,85.12
2022-12-11T13:01:28.774Z,85.14
2022-12-11T13:03:35.543Z,84.83
2022-12-11T13:05:40.846Z,85.46
2022-12-11T13:07:54.206Z,85.12
2022-12-11T13:09:58.650Z,84.59
2022-12-11T13:12:00.165Z,84.39
2022-12-11T13:14:22.086Z,84.16
2022-12-11T13:16:26.559Z,85.05
2022-12-11T13:18:39.292Z,84.96
2022-12-11T13:20:51.086Z,85.24
2022-12-11T13:23:07.577Z,85.24
2022-12-11T13:25:25.954Z,84.66
2022-12-11T13:27:40.755Z,84.93
2022-12-11T13:29:42.775Z,84.51
2022-12-11T13:31:45.544Z,84.81
2022-12-11T13:33:53.382Z,84.82
2022-12-11T13:36:22.916Z,84.84
2022-12-11T13:38:26.182Z,84.66
2022-12-11T13:40:33.312Z,84.73
2022-12-11T13:42:44.164Z,85.10
2022-12-11T13:44:48.459Z,85.39
2022-12-11T13:46:52.271Z,85.59
2022-12-11T13:49:00.776Z,86.30
2022-12-11T13:51:03.705Z,86.01
2022-12-11T13:53:05.450Z,86.09
2022-12-11T13:55:21.720Z,85.77
2022-12-11T13:57:25.886Z,86.33
2022-12-11T13:59:40.973Z,86.41
2022-12-11T14:01:42.538Z,86.06
2022-12-11T14:03:54.602Z,86.28
2022-12-11T14:05:56.276Z,86.62
2022-12-11T14:08:02.832Z,86.56
2022-12-11T14:10:29.925Z,87.29
2022-12-11T14:12:32.767Z,87.16
2022-12-11T14:14:42.699Z,87.50
2022-12-11T14:16:48.186Z,87.55
2022-12-11T14:18:51.989Z,87.38
2022-12-11T14:20:55.909Z,87.67
2022-12-11T14:23:24.075Z,88.31
2022-12-11T14:25:27.503Z,88.30
2022-12-11T14:27:29.680Z,88.30
2022-12-11T14:29:33.217Z,88.41
2022-12-11T14:31:39.967Z,88.58
2022-12-11T14:33:47.522Z,88.90
2022-12-11T14:35:50.507Z,88.46
2022-12-11T14:37:53.054Z,88.26
2022-12-11T14:40:24.147Z,88.66
2022-12-11T14:42:32.462Z,89.12
2022-12-11T14:44:49.103Z,89.01
2022-12-11T14:46:55.422Z,88.72
2022-12-11T14:49:01.817Z,88.66
2022-12-11T14:51:07.562Z,89.05
2022-12-11T14:53:15.479Z,88.72
2022-12-11T14:55:24.326Z,88.79
2022-12-11T14:57:30.606Z,89.31
2022-12-11T14:59:41.272Z,89.04
2022-12-11T15:01:42.851Z,88.96
2022-12-11T15:03:44.618Z,88.98
2022-12-11T15:05:56.735Z,89.48
2022-12-11T15:08:24.410Z,89.19
2022-12-11T15:10:36.904Z,89.29
2022-12-11T15:12:45.353Z,89.52
2022-12-11T15:14:51.484Z,89.49
2022-12-11T15:16:56.278Z,89.26
2022-12-11T15:19:01.543Z,89.59
2022-12-11T15:21:09.989Z,89.41
2022-12-11T15:23:18.680Z,89.61
2022-12-11T15:25:22.901Z,89.16
2022-12-11T15:27:30.801Z,88.73
2022-12-11T15:29:38.361Z,88.75
2022-12-11T15:31:39.933Z,88.22
2022-12-11T15:33:48.010Z,87.56
2022-12-11T15:35:53.705Z,87.59
2022-12-11T15:37:57.513Z,86.86
2022-12-11T15:40:01.501Z,86.88
2022-12-11T15:42:03.063Z,86.49
2022-12-11T15:44:04.984Z,86.50
2022-12-11T15:46:07.271Z,86.60
2022-12-11T15:48:11.328Z,87.15
2022-12-11T15:50:27.154Z,86.88
2022-12-11T15:52:28.825Z,87.24
2022-12-11T15:54:30.298Z,87.12
2022-12-11T15:56:31.944Z,87.29
2022-12-11T15:58:33.429Z,87.85
2022-12-11T16:00:35.183Z,88.07
2022-12-11T16:02:36.643Z,87.75
2022-12-11T16:04:38.315Z,87.81
2022-12-11T16:06:45.207Z,87.83
2022-12-11T16:08:46.839Z,87.56
2022-12-11T16:10:48.762Z,87.19
2022-12-11T16:12:50.348Z,87.20
2022-12-11T16:14:51.943Z,87.30
2022-12-11T16:16:53.441Z,87.00
2022-12-11T16:18:54.898Z,86.75
2022-12-11T16:20:56.361Z,86.62
2022-12-11T16:22:59.232Z,87.07
2022-12-11T16:25:00.763Z,86.74
2022-12-11T16:27:03.190Z,86.47
2022-12-11T16:29:04.648Z,87.00
2022-12-11T16:31:14.349Z,86.49
2022-12-11T16:33:16.370Z,86.67
2022-12-11T16:35:18.743Z,86.51
2022-12-11T16:37:20.406Z,85.94
2022-12-11T16:39:21.825Z,85.81
2022-12-11T16:41:23.983Z,86.25
2022-12-11T16:43:25.519Z,86.11
2022-12-11T16:45:27.341Z,86.44
2022-12-11T16:47:30.337Z,85.77
2022-12-11T16:49:32.234Z,86.09
2022-12-11T16:51:33.882Z,86.38
2022-12-11T16:53:35.403Z,86.43
2022-12-11T16:55:39.547Z,86.19
2022-12-11T16:57:41.516Z,86.09
2022-12-11T16:59:43.465Z,86.14
2022-12-11T17:01:45.836Z,85.90
2022-12-11T17:03:47.451Z,86.32
2022-12-11T17:05:48.879Z,86.53
2022-12-11T17:07:50.562Z,85.84
2022-12-11T17:09:52.031Z,85.75
2022-12-11T17:11:53.777Z,86.25
2022-12-11T17:13:56.757Z,85.74
2022-12-11T17:15:58.326Z,86.16
2022-12-11T17:17:59.818Z,86.25
2022-12-11T17:20:01.338Z,86.01
2022-12-11T17:22:03.489Z,86.16
2022-12-11T17:24:05.266Z,86.20
2022-12-11T17:26:08.775Z,85.84
2022-12-11T17:28:11.399Z,86.15
2022-12-11T17:30:14.177Z,86.13
2022-12-11T17:32:16.749Z,86.57
2022-12-11T17:34:18.234Z,86.30
2022-12-11T17:36:21.787Z,86.46
2022-12-11T17:38:23.238Z,85.83
2022-12-11T17:40:24.877Z,85.88
2022-12-11T17:42:26.541Z,86.14
2022-12-11T17:44:30.678Z,85.93
2022-12-11T17:46:32.300Z,85.95
2022-12-11T17:48:34.111Z,86.02
2022-12-11T17:50:43.768Z,86.30
2022-12-11T17:52:45.222Z,85.82
2022-12-11T17:54:46.694Z,86.32
2022-12-11T17:56:48.295Z,86.23
2022-12-11T17:58:49.990Z,86.30
2022-12-11T18:00:54.442Z,85.95
2022-12-11T18:02:55.891Z,86.53
2022-12-11T18:04:57.313Z,86.17
2022-12-11T18:06:58.785Z,85.94
2022-12-11T18:09:00.227Z,85.99
2022-12-11T18:11:07.446Z,86.23
2022-12-11T18:13:09.713Z,85.87
2022-12-11T18:15:11.745Z,86.24
2022-12-11T18:17:13.411Z,86.60
2022-12-11T18:19:15.761Z,86.74
2022-12-11T18:21:21.596Z,86.33
2022-12-11T18:23:23.445Z,86.93
2022-12-11T18:25:24.941Z,86.47
2022-12-11T18:27:26.601Z,86.99
2022-12-11T18:29:28.687Z,87.00
2022-12-11T18:31:30.338Z,86.82
2022-12-11T18:33:32.229Z,86.83
2022-12-11T18:35:33.747Z,87.01
2022-12-11T18:37:35.961Z,87.15
2022-12-11T18:39:37.416Z,86.94
2022-12-11T18:41:39.070Z,87.03
2022-12-11T18:43:41.484Z,87.22
2022-12-11T18:45:45.120Z,87.11
2022-12-11T18:47:47.257Z,87.52
2022-12-11T18:49:48.777Z,87.70
2022-12-11T18:51:50.319Z,87.74
2022-12-11T18:53:52.505Z,87.77
2022-12-11T18:56:00.025Z,87.62
2022-12-11T18:58:01.834Z,87.78
2022-12-11T19:00:07.465Z,88.01
2022-12-11T19:02:10.971Z,87.95
2022-12-11T19:04:13.442Z,88.33
2022-12-11T19:06:18.623Z,87.68
2022-12-11T19:08:21.121Z,87.76
2022-12-11T19:10:22.767Z,87.35
2022-12-11T19:12:24.339Z,87.51
2022-12-11T19:14:25.869Z,87.43
2022-12-11T19:16:30.244Z,87.43
2022-12-11T19:18:31.930Z,87.33
2022-12-11T19:21:00.461Z,87.51
2022-12-11T19:22:58.415Z,87.54
2022-12-11T19:25:00.486Z,87.44
2022-12-11T19:27:02.064Z,87.43
2022-12-11T19:29:03.840Z,87.46
2022-12-11T19:31:12.161Z,87.46
2022-12-11T19:33:13.879Z,87.50
2022-12-11T19:35:16.719Z,87.29
2022-12-11T19:37:18.671Z,87.35
2022-12-11T19:39:20.636Z,87.15
2022-12-11T19:41:27.131Z,87.11
2022-12-11T19:43:28.596Z,87.38
2022-12-11T19:45:30.081Z,87.26
2022-12-11T19:47:32.172Z,86.89
2022-12-11T19:49:33.817Z,87.10
2022-12-11T19:51:41.010Z,87.01
2022-12-11T19:53:43.504Z,86.94
2022-12-11T19:55:52.943Z,86.53
2022-12-11T19:57:55.665Z,86.71
2022-12-11T19:59:57.564Z,86.70
2022-12-11T20:01:59.186Z,86.81
2022-12-11T20:04:04.099Z,86.60
2022-12-11T20:06:07.995Z,86.57
2022-12-11T20:08:42.519Z,86.57
2022-12-11T20:10:31.009Z,86.44
2022-12-11T20:12:32.672Z,86.51
2022-12-11T20:14:34.124Z,86.54
2022-12-11T20:17:09.276Z,86.47
2022-12-11T20:18:58.507Z,86.42
2022-12-11T20:21:01.145Z,86.17
2022-12-11T20:23:02.711Z,86.26
2022-12-11T20:25:04.653Z,86.10
2022-12-11T20:27:06.231Z,86.27
2022-12-11T20:29:08.406Z,86.14
2022-12-11T20:31:19.727Z,86.20
2022-12-11T20:33:22.435Z,85.77
2022-12-11T20:35:26.312Z,86.25
2022-12-11T20:37:29.069Z,86.31
2022-12-11T20:39:31.960Z,86.40
2022-12-11T20:41:33.613Z,86.23
2022-12-11T20:43:35.347Z,85.74
2022-12-11T20:45:36.904Z,86.06
2022-12-11T20:47:38.370Z,85.73
2022-12-11T20:49:40.428Z,85.83
2022-12-11T20:51:42.093Z,85.75
2022-12-11T20:53:43.672Z,85.92
2022-12-11T20:55:45.124Z,85.95
2022-12-11T20:57:46.591Z,86.11
2022-12-11T20:59:49.461Z,85.73
2022-12-11T21:01:51.046Z,85.90
2022-12-11T21:03:53.534Z,85.90
2022-12-11T21:05:55.088Z,85.73
2022-12-11T21:07:56.935Z,85.64
2022-12-11T21:09:58.461Z,85.55
2022-12-11T21:12:01.547Z,85.45
2022-12-11T21:14:03.852Z,85.67
2022-12-11T21:16:07.203Z,85.55
2022-12-11T21:18:08.903Z,85.48
2022-12-11T21:20:10.855Z,85.38
2022-12-11T21:22:12.534Z,85.34
2022-12-11T21:24:21.064Z,85.58
2022-12-11T21:26:22.714Z,85.69
2022-12-11T21:28:24.261Z,85.40
2022-12-11T21:30:25.708Z,85.59
2022-12-11T21:32:29.881Z,85.50
2022-12-11T21:34:31.389Z,85.35
2022-12-11T21:36:33.473Z,85.26
2022-12-11T21:38:35.048Z,85.54
2022-12-11T21:40:36.542Z,85.50
2022-12-11T21:42:37.986Z,85.61
2022-12-11T21:47:00.917Z,85.47
2022-12-11T21:49:02.438Z,85.70
2022-12-11T21:51:08.508Z,85.67
2022-12-11T21:53:10.025Z,85.80
2022-12-11T21:55:12.619Z,85.57
2022-12-11T21:57:14.413Z,85.48
2022-12-11T21:59:15.955Z,85.53
2022-12-11T22:01:21.546Z,85.69
2022-12-11T22:03:23.135Z,85.41
2022-12-11T22:05:24.699Z,85.41
2022-12-11T22:07:26.570Z,85.56
2022-12-11T22:09:28.006Z,85.66
2022-12-11T22:11:32.823Z,85.31
2022-12-11T22:13:34.314Z,85.25
2022-12-11T22:15:35.795Z,85.46
2022-12-11T22:17:37.304Z,85.21
2022-12-11T22:19:38.744Z,85.58
2022-12-11T22:21:40.372Z,86.12
2022-12-11T22:23:42.769Z,86.94
2022-12-11T22:25:44.202Z,87.46
2022-12-11T22:27:45.639Z,87.12
2022-12-11T22:29:47.132Z,87.98
2022-12-11T22:31:48.685Z,88.07
2022-12-11T22:33:53.730Z,88.17
2022-12-11T22:35:59.722Z,88.45
2022-12-11T22:38:01.556Z,88.47
2022-12-11T22:40:04.244Z,88.31
2022-12-11T22:42:05.693Z,88.24
2022-12-11T22:44:07.845Z,87.87
2022-12-11T22:46:15.823Z,87.92
2022-12-11T22:48:17.362Z,87.94
2022-12-11T22:50:18.957Z,87.74
2022-12-11T22:52:20.417Z,87.96
2022-12-11T22:54:21.861Z,88.09
2022-12-11T22:56:23.363Z,87.49
2022-12-11T22:58:24.801Z,87.78
2022-12-11T23:00:26.330Z,87.44
2022-12-11T23:02:27.843Z,87.35
2022-12-11T23:04:29.301Z,87.11
2022-12-11T23:06:30.941Z,87.36
2022-12-11T23:08:33.135Z,87.48
2022-12-11T23:10:35.058Z,87.70
2022-12-11T23:12:37.041Z,87.62
2022-12-11T23:14:38.514Z,87.80
2022-12-11T23:16:40.054Z,87.24
2022-12-11T23:18:41.658Z,87.61
2022-12-11T23:20:43.166Z,87.59
2022-12-11T23:22:44.622Z,87.20
2022-12-11T23:24:46.124Z,87.27
2022-12-11T23:26:48.116Z,86.95
2022-12-11T23:28:50.096Z,86.73
2022-12-11T23:30:51.681Z,87.16
2022-12-11T23:32:53.155Z,86.93
2022-12-11T23:34:54.659Z,86.84
2022-12-11T23:36:56.119Z,86.72
2022-12-11T23:38:57.632Z,86.41
2022-12-11T23:41:00.624Z,86.29
2022-12-11T23:43:02.108Z,85.98
2022-12-11T23:45:03.872Z,85.85
2022-12-11T23:47:05.677Z,85.97
2022-12-11T23:49:07.114Z,86.05
2022-12-11T23:51:13.101Z,85.92
2022-12-11T23:53:15.209Z,86.43
2022-12-11T23:55:16.705Z,86.37
2022-12-11T23:57:18.245Z,85.96
2022-12-11T23:59:19.725Z,85.90
